Time;durP1;ratioP1;P1;durP2;ratioP2;P2;SDS_P1;SDS_P2;PMS_P1;PMS_P2;Temp;Humidity;BMP_temperature;BMP_pressure;BME280_temperature;BME280_humidity;BME280_pressure;Samples;Min_cycle;Max_cycle;Signal;HPM_P1;HPM_P2
2022/06/25 00:00:58;;;;;;;25.10;18.33;;;15.30;99.90;;;;;;5057581;28;20025;-69
2022/06/25 00:03:24;;;;;;;22.20;18.10;;;15.20;99.90;;;;;;5057702;28;20086;-69
2022/06/25 00:05:50;;;;;;;18.55;16.27;;;15.20;99.90;;;;;;5057636;28;20043;-69
2022/06/25 00:08:15;;;;;;;17.33;15.50;;;15.10;99.90;;;;;;5057572;28;20021;-69
2022/06/25 00:10:42;;;;;;;21.02;17.88;;;15.00;99.90;;;;;;5057406;28;20423;-69
2022/06/25 00:13:07;;;;;;;19.83;17.73;;;15.00;99.90;;;;;;5057320;28;20035;-69
2022/06/25 00:15:33;;;;;;;19.45;16.90;;;14.90;99.90;;;;;;5057674;28;20028;-69
2022/06/25 00:17:58;;;;;;;25.35;19.13;;;14.80;99.90;;;;;;5057761;28;20100;-69
2022/06/25 00:20:24;;;;;;;20.45;16.85;;;14.80;99.90;;;;;;5057904;28;20025;-69
2022/06/25 00:22:50;;;;;;;16.92;15.13;;;14.70;99.90;;;;;;5057349;28;20084;-69
2022/06/25 00:25:15;;;;;;;17.00;15.32;;;14.70;99.90;;;;;;5057035;28;20028;-69
2022/06/25 00:27:41;;;;;;;16.55;14.85;;;14.70;99.90;;;;;;5057380;28;20021;-69
2022/06/25 00:30:08;;;;;;;17.30;15.50;;;14.70;99.90;;;;;;5057080;28;20579;-69
2022/06/25 00:32:34;;;;;;;19.38;17.23;;;14.70;99.90;;;;;;5056890;28;20029;-69
2022/06/25 00:35:00;;;;;;;17.77;15.88;;;14.70;99.90;;;;;;5056964;28;20017;-69
2022/06/25 00:37:25;;;;;;;18.60;16.70;;;14.70;99.90;;;;;;5056792;28;20033;-70
2022/06/25 00:39:51;;;;;;;20.55;18.42;;;14.60;99.90;;;;;;5056847;28;20124;-69
2022/06/25 00:42:16;;;;;;;51.97;23.20;;;14.60;99.90;;;;;;5056804;28;20032;-69
2022/06/25 00:44:42;;;;;;;26.55;21.65;;;14.60;99.90;;;;;;5057709;28;20032;-71
2022/06/25 00:47:10;;;;;;;24.30;22.00;;;14.60;99.90;;;;;;5057511;28;20509;-70
2022/06/25 00:49:36;;;;;;;88.28;29.25;;;14.70;99.90;;;;;;5058387;28;20025;-71
2022/06/25 00:52:11;;;;;;;110.10;32.33;;;14.80;99.90;;;;;;5057805;28;20033;-71
2022/06/25 00:54:44;;;;;;;77.32;31.05;;;14.80;99.90;;;;;;5039605;28;20032;-71
2022/06/25 00:57:12;;;;;;;26.20;23.57;;;14.90;99.90;;;;;;5057620;28;20078;-71
2022/06/25 00:59:46;;;;;;;25.58;23.20;;;14.70;99.90;;;;;;5057525;28;20732;-71
2022/06/25 01:02:11;;;;;;;22.42;20.35;;;14.70;99.90;;;;;;5057765;28;20385;-71
2022/06/25 01:04:38;;;;;;;18.13;16.52;;;14.70;99.90;;;;;;5056932;28;20025;-71
2022/06/25 01:07:04;;;;;;;19.08;17.38;;;14.60;99.90;;;;;;5057311;28;20040;-71
2022/06/25 01:09:29;;;;;;;22.02;20.08;;;14.60;99.90;;;;;;5056474;28;20025;-70
2022/06/25 01:11:55;;;;;;;20.75;18.83;;;14.60;99.90;;;;;;5056923;28;20462;-70
2022/06/25 01:14:20;;;;;;;18.98;17.27;;;14.60;99.90;;;;;;5056638;28;20028;-71
2022/06/25 01:16:46;;;;;;;16.42;15.02;;;14.50;99.90;;;;;;5057207;28;20057;-71
2022/06/25 01:19:12;;;;;;;16.30;14.82;;;14.50;99.90;;;;;;5056691;28;20469;-71
2022/06/25 01:21:40;;;;;;;81.93;24.45;;;14.50;99.90;;;;;;5056799;28;20025;-71
2022/06/25 01:24:06;;;;;;;28.00;23.30;;;14.50;99.90;;;;;;5057164;28;20067;-70
2022/06/25 01:26:34;;;;;;;35.72;26.55;;;14.50;99.90;;;;;;5057006;28;20104;-71
2022/06/25 01:29:00;;;;;;;24.35;22.15;;;14.50;99.90;;;;;;5056945;28;20087;-71
2022/06/25 01:31:25;;;;;;;18.33;16.65;;;14.40;99.90;;;;;;5056550;28;20020;-71
2022/06/25 01:33:51;;;;;;;17.38;15.82;;;14.40;99.90;;;;;;5056571;28;20104;-71
2022/06/25 01:36:16;;;;;;;16.00;14.50;;;14.20;99.90;;;;;;5056465;28;20032;-71
2022/06/25 01:38:44;;;;;;;15.30;13.90;;;14.20;99.90;;;;;;5056527;28;20025;-71
2022/06/25 01:41:09;;;;;;;17.50;15.88;;;14.10;99.90;;;;;;5056719;28;20417;-71
2022/06/25 01:43:35;;;;;;;23.85;21.55;;;14.00;99.90;;;;;;5056133;28;20029;-71
2022/06/25 01:46:00;;;;;;;29.67;26.63;;;14.10;99.90;;;;;;5056063;28;20025;-71
2022/06/25 01:48:26;;;;;;;24.98;22.45;;;14.10;99.90;;;;;;5056261;28;20035;-71
2022/06/25 01:50:51;;;;;;;21.00;18.77;;;14.10;99.90;;;;;;5056289;28;20025;-71
2022/06/25 01:53:17;;;;;;;19.73;17.70;;;14.00;99.90;;;;;;5056137;28;20031;-71
2022/06/25 01:55:43;;;;;;;16.45;14.93;;;13.90;99.90;;;;;;5056402;28;20060;-71
2022/06/25 01:58:08;;;;;;;20.00;18.10;;;13.90;99.90;;;;;;5055982;28;20428;-71
2022/06/25 02:00:34;;;;;;;15.40;14.00;;;13.80;99.90;;;;;;5056066;28;20025;-71
2022/06/25 02:03:00;;;;;;;17.58;15.90;;;13.70;99.90;;;;;;5038379;28;20377;-71
2022/06/25 02:08:14;;;;;;;16.98;15.10;;;13.60;99.90;;;;;;5055932;28;20075;-71
2022/06/25 02:10:41;;;;;;;17.42;14.85;;;13.60;99.90;;;;;;5055765;28;20025;-71
2022/06/25 02:13:07;;;;;;;14.70;13.23;;;13.50;99.90;;;;;;5055599;28;20053;-71
2022/06/25 02:15:33;;;;;;;13.75;12.45;;;13.50;99.90;;;;;;5055725;28;20484;-73
2022/06/25 02:17:59;;;;;;;14.20;12.90;;;13.40;99.90;;;;;;5055790;28;20043;-71
2022/06/25 02:20:25;;;;;;;15.77;14.18;;;13.40;99.90;;;;;;5055777;28;20051;-71
2022/06/25 02:22:51;;;;;;;19.13;16.50;;;13.40;99.90;;;;;;5055790;28;20029;-71
2022/06/25 02:25:17;;;;;;;16.92;15.23;;;13.30;99.90;;;;;;5055483;28;20440;-71
2022/06/25 02:27:43;;;;;;;16.48;14.88;;;13.30;99.90;;;;;;5055600;28;20420;-71
2022/06/25 02:30:09;;;;;;;17.48;15.75;;;13.40;99.90;;;;;;5055529;28;20060;-71
2022/06/25 02:32:34;;;;;;;15.65;14.15;;;13.30;99.90;;;;;;5055682;28;20063;-71
2022/06/25 02:35:00;;;;;;;16.52;14.63;;;13.30;99.90;;;;;;5037308;28;20477;-72
2022/06/25 02:37:26;;;;;;;21.50;14.40;;;13.30;99.90;;;;;;5055401;28;20385;-73
2022/06/25 02:39:51;;;;;;;13.55;12.38;;;13.20;99.90;;;;;;5055376;28;20025;-72
2022/06/25 02:42:17;;;;;;;13.13;11.93;;;13.20;99.90;;;;;;5055418;28;20085;-72
2022/06/25 02:44:43;;;;;;;13.82;12.60;;;13.30;99.90;;;;;;5055212;28;20029;-72
2022/06/25 02:47:08;;;;;;;14.05;12.77;;;13.20;99.90;;;;;;5055158;28;20028;-73
2022/06/25 02:49:34;;;;;;;14.70;13.30;;;13.30;99.90;;;;;;5036982;28;20056;-73
2022/06/25 02:51:59;;;;;;;14.50;13.02;;;13.30;99.90;;;;;;5054854;28;20029;-72
2022/06/25 02:54:25;;;;;;;17.83;16.05;;;13.40;99.90;;;;;;5055160;28;20029;-72
2022/06/25 02:59:42;;;;;;;17.90;16.10;;;13.40;99.90;;;;;;5055425;28;20106;-73
2022/06/25 03:02:08;;;;;;;17.02;15.38;;;13.40;99.90;;;;;;5054581;28;20477;-73
2022/06/25 03:04:33;;;;;;;18.00;16.10;;;13.40;99.90;;;;;;5054647;28;20029;-73
2022/06/25 03:06:59;;;;;;;18.67;16.77;;;13.40;99.90;;;;;;5054620;28;20104;-73
2022/06/25 03:09:25;;;;;;;20.50;17.65;;;13.40;99.90;;;;;;5054941;28;20029;-73
2022/06/25 03:11:51;;;;;;;21.27;19.00;;;13.40;99.90;;;;;;5054411;28;20025;-72
2022/06/25 03:14:17;;;;;;;22.55;19.05;;;13.50;99.90;;;;;;5054753;28;20028;-73
2022/06/25 03:16:43;;;;;;;23.60;18.88;;;13.50;99.90;;;;;;5054515;28;20025;-73
2022/06/25 03:19:09;;;;;;;21.80;19.42;;;13.50;99.90;;;;;;5054617;28;20025;-72
2022/06/25 03:21:35;;;;;;;22.55;19.95;;;13.60;99.90;;;;;;5054885;28;20496;-73
2022/06/25 03:24:01;;;;;;;31.45;25.50;;;13.60;99.90;;;;;;5054575;28;20033;-73
2022/06/25 03:26:27;;;;;;;26.70;23.88;;;13.60;99.90;;;;;;5054694;28;20029;-73
2022/06/25 03:28:53;;;;;;;23.55;20.05;;;13.70;99.90;;;;;;5054645;28;20070;-73
2022/06/25 03:31:20;;;;;;;24.20;21.10;;;13.70;99.90;;;;;;5054577;28;20150;-73
2022/06/25 03:33:47;;;;;;;23.23;19.95;;;13.80;99.90;;;;;;5054203;28;20029;-73
2022/06/25 03:36:12;;;;;;;29.13;23.60;;;13.80;99.90;;;;;;5054561;28;20025;-73
2022/06/25 03:38:38;;;;;;;25.63;22.83;;;13.80;99.90;;;;;;5054377;28;20417;-73
2022/06/25 03:41:49;;;;;;;26.50;23.70;;;13.80;99.90;;;;;;5054550;28;20087;-73
2022/06/25 03:43:49;;;;;;;27.05;24.23;;;13.80;99.90;;;;;;5043811;28;20045;-73
2022/06/25 03:46:15;;;;;;;25.45;22.73;;;13.90;99.90;;;;;;5054298;28;20029;-73
2022/06/25 03:48:41;;;;;;;25.42;22.73;;;13.90;99.90;;;;;;5054503;28;20071;-73
2022/06/25 03:51:07;;;;;;;27.45;24.17;;;13.90;99.90;;;;;;5054268;28;20025;-73
2022/06/25 03:53:32;;;;;;;28.42;25.50;;;13.90;99.90;;;;;;5054431;28;20060;-73
2022/06/25 03:55:59;;;;;;;28.83;25.88;;;14.00;99.90;;;;;;5054821;28;20449;-73
2022/06/25 03:58:24;;;;;;;29.50;26.30;;;14.00;99.90;;;;;;5054192;28;20029;-73
2022/06/25 04:00:50;;;;;;;28.02;24.75;;;14.00;99.90;;;;;;5054053;28;20135;-73
2022/06/25 04:03:16;;;;;;;26.27;23.48;;;14.10;99.90;;;;;;5054376;28;20029;-73
2022/06/25 04:05:41;;;;;;;27.02;24.27;;;14.10;99.90;;;;;;5054069;28;20067;-72
2022/06/25 04:08:07;;;;;;;26.33;23.50;;;14.20;99.90;;;;;;5054026;28;20469;-73
2022/06/25 04:10:32;;;;;;;26.27;23.48;;;14.20;99.90;;;;;;5054051;28;20029;-73
2022/06/25 04:12:58;;;;;;;25.75;23.05;;;14.20;99.90;;;;;;5054097;28;20100;-73
2022/06/25 04:15:23;;;;;;;33.55;27.58;;;14.20;99.90;;;;;;5054302;28;20096;-73
2022/06/25 04:17:49;;;;;;;47.65;37.67;;;14.20;99.90;;;;;;5053811;28;20025;-73
2022/06/25 04:20:15;;;;;;;42.80;34.75;;;14.30;99.90;;;;;;5054289;28;20462;-73
2022/06/25 04:22:41;;;;;;;43.25;36.83;;;14.30;99.90;;;;;;5054054;28;20036;-73
2022/06/25 04:25:07;;;;;;;34.47;30.77;;;14.30;99.90;;;;;;5053632;28;20418;-73
2022/06/25 04:30:17;;;;;;;26.13;21.90;;;14.40;99.90;;;;;;5053814;28;20441;-73
2022/06/25 04:32:42;;;;;;;29.30;25.30;;;14.40;99.90;;;;;;5053835;28;20029;-74
2022/06/25 04:35:08;;;;;;;26.02;23.23;;;14.50;99.90;;;;;;5054130;28;20436;-73
2022/06/25 04:37:34;;;;;;;26.25;23.35;;;14.40;99.90;;;;;;5053815;28;20037;-72
2022/06/25 04:39:59;;;;;;;26.95;22.50;;;14.50;99.90;;;;;;5054357;28;20029;-73
2022/06/25 04:42:25;;;;;;;25.67;22.63;;;14.40;99.90;;;;;;5053616;28;20033;-72
2022/06/25 04:44:50;;;;;;;28.70;24.40;;;14.60;99.90;;;;;;5056012;28;20033;-73
2022/06/25 04:47:16;;;;;;;30.98;27.02;;;14.70;99.90;;;;;;5039866;28;20108;-73
2022/06/25 04:49:41;;;;;;;37.63;31.17;;;15.00;99.90;;;;;;5057554;28;20029;-71
2022/06/25 04:52:07;;;;;;;33.13;27.85;;;15.00;99.90;;;;;;5057508;28;20029;-73
2022/06/25 04:54:32;;;;;;;33.17;28.90;;;15.00;99.90;;;;;;5057779;28;20040;-73
2022/06/25 04:56:58;;;;;;;30.90;25.83;;;15.20;99.90;;;;;;5057359;28;20099;-73
2022/06/25 04:59:24;;;;;;;31.48;28.05;;;15.20;99.90;;;;;;5057384;28;20068;-73
2022/06/25 05:01:50;;;;;;;29.13;25.52;;;15.40;99.90;;;;;;5056818;28;20029;-73
2022/06/25 05:04:16;;;;;;;37.63;29.75;;;15.50;99.90;;;;;;5057170;28;20037;-72
2022/06/25 05:06:41;;;;;;;32.20;26.83;;;15.60;99.90;;;;;;5057621;28;20086;-73
2022/06/25 05:09:07;;;;;;;32.20;27.42;;;15.70;99.90;;;;;;5057937;28;20028;-73
2022/06/25 05:11:32;;;;;;;35.28;29.00;;;15.80;99.90;;;;;;5058246;28;20023;-73
2022/06/25 05:13:58;;;;;;;34.22;27.63;;;15.90;99.90;;;;;;5057784;28;20028;-72
2022/06/25 05:16:23;;;;;;;34.55;28.00;;;15.80;99.90;;;;;;5057793;28;20029;-72
2022/06/25 05:18:49;;;;;;;28.48;23.88;;;16.00;99.90;;;;;;5057590;28;20024;-72
2022/06/25 05:21:15;;;;;;;36.67;26.30;;;16.00;99.90;;;;;;5057242;28;20485;-74
2022/06/25 05:23:40;;;;;;;36.25;28.00;;;16.10;99.90;;;;;;5039292;28;20025;-72
2022/06/25 05:26:07;;;;;;;33.28;27.33;;;16.30;99.90;;;;;;5057005;28;20083;-72
2022/06/25 05:28:32;;;;;;;31.55;27.05;;;16.40;99.90;;;;;;5057093;28;20017;-72
2022/06/25 05:30:58;;;;;;;39.05;31.10;;;16.60;99.90;;;;;;5056840;28;20032;-72
2022/06/25 05:33:23;;;;;;;55.03;40.05;;;16.70;99.90;;;;;;5057640;28;20017;-72
2022/06/25 05:35:49;;;;;;;41.55;33.10;;;16.80;99.90;;;;;;5057705;28;20029;-72
2022/06/25 05:38:15;;;;;;;33.30;27.00;;;16.80;99.90;;;;;;5057087;28;20397;-73
2022/06/25 05:40:40;;;;;;;39.38;28.88;;;16.80;99.90;;;;;;5056205;28;20031;-73
2022/06/25 05:43:06;;;;;;;41.92;32.15;;;16.90;99.90;;;;;;5055713;28;20116;-73
2022/06/25 05:45:32;;;;;;;42.10;34.17;;;17.00;99.90;;;;;;5055881;28;20021;-73
2022/06/25 05:47:58;;;;;;;42.75;30.80;;;17.20;99.90;;;;;;5056226;28;20021;-73
2022/06/25 05:50:24;;;;;;;54.85;39.15;;;17.30;99.90;;;;;;5055897;28;20025;-74
2022/06/25 05:52:50;;;;;;;52.05;39.00;;;17.40;99.90;;;;;;5056197;28;20492;-74
2022/06/25 05:55:15;;;;;;;51.42;37.83;;;17.50;99.90;;;;;;5055948;28;20025;-73
2022/06/25 05:57:42;;;;;;;38.88;30.02;;;17.60;99.90;;;;;;5056446;28;20108;-73
2022/06/25 06:00:08;;;;;;;38.60;31.75;;;17.70;99.90;;;;;;5056507;28;20025;-72
2022/06/25 06:02:34;;;;;;;47.78;34.67;;;17.90;99.90;;;;;;5055687;28;20033;-72
2022/06/25 06:04:59;;;;;;;42.20;31.05;;;18.10;99.90;;;;;;5055653;28;20483;-72
2022/06/25 06:07:25;;;;;;;41.95;30.85;;;18.30;99.90;;;;;;5055480;28;20420;-72
2022/06/25 06:09:50;;;;;;;38.65;27.23;;;18.30;99.90;;;;;;5055434;28;20436;-72
2022/06/25 06:12:16;;;;;;;26.73;22.67;;;18.20;99.90;;;;;;5056126;28;20021;-72
2022/06/25 06:14:42;;;;;;;23.48;20.13;;;18.40;99.90;;;;;;5056140;28;20512;-72
2022/06/25 06:17:08;;;;;;;37.00;27.35;;;18.60;99.90;;;;;;5055849;28;20052;-72
2022/06/25 06:19:33;;;;;;;32.55;24.92;;;18.80;99.90;;;;;;5056362;28;20370;-72
2022/06/25 06:21:59;;;;;;;35.47;28.75;;;19.00;99.90;;;;;;5055861;28;20107;-72
2022/06/25 06:24:24;;;;;;;30.40;25.33;;;19.10;99.90;;;;;;5056481;28;20093;-72
2022/06/25 06:26:50;;;;;;;40.28;30.98;;;19.10;99.90;;;;;;5056378;28;20130;-72
2022/06/25 06:29:17;;;;;;;36.17;27.30;;;19.30;99.90;;;;;;5056812;28;20036;-72
2022/06/25 06:31:43;;;;;;;24.63;19.02;;;19.40;99.90;;;;;;5056752;28;20413;-72
2022/06/25 06:34:08;;;;;;;27.88;24.75;;;19.50;99.90;;;;;;5056616;28;20027;-72
2022/06/25 06:36:34;;;;;;;24.80;20.73;;;19.70;99.90;;;;;;5056308;28;20028;-72
2022/06/25 06:39:00;;;;;;;23.55;20.60;;;19.90;99.90;;;;;;5057847;28;20025;-72
2022/06/25 06:41:25;;;;;;;23.27;20.42;;;20.00;99.90;;;;;;5057422;28;20108;-72
2022/06/25 06:43:51;;;;;;;29.90;24.13;;;20.30;99.90;;;;;;5057007;28;20041;-72
2022/06/25 06:46:16;;;;;;;25.50;20.90;;;20.30;99.90;;;;;;5053041;23;20053;-68
2022/06/25 06:48:42;;;;;;;29.63;21.02;;;20.50;99.90;;;;;;5034393;28;20465;-68
2022/06/25 06:51:07;;;;;;;28.00;19.92;;;20.60;99.90;;;;;;5034153;28;20017;-68
2022/06/25 06:53:34;;;;;;;26.55;20.58;;;20.70;99.90;;;;;;5034116;28;20021;-68
2022/06/25 06:56:00;;;;;;;21.73;17.30;;;20.80;99.90;;;;;;5033912;28;20082;-68
2022/06/25 06:58:27;;;;;;;16.55;14.90;;;20.90;99.90;;;;;;5034473;28;20033;-66
2022/06/25 07:00:52;;;;;;;20.45;14.82;;;21.20;99.90;;;;;;5033957;28;20021;-67
2022/06/25 07:03:18;;;;;;;18.00;13.88;;;21.10;99.90;;;;;;5033854;28;20132;-68
2022/06/25 07:05:43;;;;;;;13.02;10.40;;;21.10;99.90;;;;;;5033624;28;20080;-67
2022/06/25 07:08:09;;;;;;;13.38;11.90;;;21.40;99.90;;;;;;5033432;28;20075;-67
2022/06/25 07:10:35;;;;;;;12.20;10.93;;;21.30;99.90;;;;;;5033910;28;20025;-68
2022/06/25 07:13:00;;;;;;;14.60;10.48;;;21.70;99.90;;;;;;5033712;28;20032;-68
2022/06/25 07:15:26;;;;;;;9.35;8.45;;;21.70;99.90;;;;;;5033818;28;20104;-68
2022/06/25 07:17:52;;;;;;;12.55;8.95;;;21.80;99.90;;;;;;5033594;28;20034;-67
2022/06/25 07:20:17;;;;;;;7.65;6.80;;;21.80;99.90;;;;;;5033669;28;20477;-66
2022/06/25 07:22:43;;;;;;;13.38;8.43;;;21.90;99.90;;;;;;5033754;28;20037;-67
2022/06/25 07:25:08;;;;;;;10.18;6.28;;;22.00;99.90;;;;;;5033352;28;20080;-67
2022/06/25 07:27:35;;;;;;;11.30;6.30;;;21.90;99.90;;;;;;5033697;28;20096;-67
2022/06/25 07:30:01;;;;;;;9.05;7.38;;;22.20;99.90;;;;;;5033447;28;20053;-67
2022/06/25 07:32:26;;;;;;;9.48;8.20;;;22.40;99.90;;;;;;5033394;28;20060;-67
2022/06/25 07:34:52;;;;;;;9.15;6.80;;;22.50;99.90;;;;;;5033123;28;20029;-68
2022/06/25 07:37:17;;;;;;;8.05;5.95;;;22.70;99.90;;;;;;5033261;28;20036;-68
2022/06/25 07:39:43;;;;;;;8.77;6.53;;;22.80;99.90;;;;;;5033305;28;20037;-67
2022/06/25 07:42:09;;;;;;;11.25;6.88;;;23.00;99.90;;;;;;5015452;28;20113;-68
2022/06/25 07:44:34;;;;;;;11.45;7.35;;;23.10;99.90;;;;;;5033068;28;20026;-68
2022/06/25 07:47:00;;;;;;;8.23;4.68;;;23.20;99.90;;;;;;5033541;28;20099;-67
2022/06/25 07:49:25;;;;;;;6.60;3.38;;;23.10;99.90;;;;;;5033300;28;20022;-67
2022/06/25 07:51:57;;;;;;;8.77;5.30;;;23.10;99.90;;;;;;5033201;28;20018;-67
2022/06/25 07:54:24;;;;;;;5.68;4.95;;;23.30;99.90;;;;;;5033459;28;20018;-68
2022/06/25 07:56:50;;;;;;;8.82;4.93;;;23.40;99.90;;;;;;5033712;28;20030;-68
2022/06/25 07:59:15;;;;;;;8.20;4.70;;;23.70;99.90;;;;;;5033348;28;20037;-68
2022/06/25 08:01:41;;;;;;;7.93;5.15;;;23.80;99.90;;;;;;5033116;28;20026;-69
2022/06/25 08:04:07;;;;;;;5.90;4.85;;;23.90;99.90;;;;;;5033424;28;20158;-68
2022/06/25 08:06:34;;;;;;;12.13;5.25;;;24.00;99.90;;;;;;5033226;28;20079;-68
2022/06/25 08:09:01;;;;;;;5.00;3.78;;;23.90;99.90;;;;;;5033218;28;20108;-68
2022/06/25 08:11:27;;;;;;;8.00;4.20;;;24.10;99.90;;;;;;5015409;28;20067;-68
2022/06/25 08:13:52;;;;;;;10.40;4.65;;;24.40;99.90;;;;;;5033359;28;20033;-68
2022/06/25 08:16:18;;;;;;;9.18;4.75;;;24.50;99.90;;;;;;5032946;28;20037;-68
2022/06/25 08:18:43;;;;;;;4.80;4.05;;;24.60;99.90;;;;;;5035041;28;20021;-67
2022/06/25 08:21:09;;;;;;;7.22;4.22;;;24.50;99.90;;;;;;5036851;28;20041;-67
2022/06/25 08:23:35;;;;;;;5.80;4.03;;;24.10;99.90;;;;;;5037376;28;20033;-67
2022/06/25 08:26:00;;;;;;;6.25;4.78;;;24.40;99.90;;;;;;5036723;28;20041;-68
2022/06/25 08:28:26;;;;;;;4.65;3.67;;;24.70;99.90;;;;;;5036690;28;20026;-68
2022/06/25 08:30:52;;;;;;;4.95;3.72;;;25.00;99.90;;;;;;5036674;28;20069;-68
2022/06/25 08:33:17;;;;;;;6.13;4.20;;;25.30;99.90;;;;;;5036920;28;20026;-68
2022/06/25 08:35:43;;;;;;;5.70;4.45;;;25.50;99.90;;;;;;5036524;28;20029;-68
2022/06/25 08:38:08;;;;;;;6.00;3.85;;;25.60;99.90;;;;;;5036519;28;20017;-69
2022/06/25 08:40:34;;;;;;;4.95;3.92;;;25.70;99.90;;;;;;5036432;28;20104;-68
2022/06/25 08:43:00;;;;;;;9.20;4.30;;;25.80;99.90;;;;;;5036464;28;20083;-68
2022/06/25 08:45:26;;;;;;;8.73;3.42;;;25.70;99.90;;;;;;5036219;28;20037;-67
2022/06/25 08:47:53;;;;;;;4.45;3.53;;;26.00;99.90;;;;;;5036438;28;20025;-67
2022/06/25 08:50:21;;;;;;;3.97;3.55;;;26.30;99.90;;;;;;5036571;28;20104;-67
2022/06/25 08:52:49;;;;;;;3.25;2.30;;;26.50;99.90;;;;;;5036291;28;20025;-68
2022/06/25 08:55:36;;;;;;;3.03;2.55;;;26.70;99.90;;;;;;5035992;28;20545;-68
2022/06/25 08:58:03;;;;;;;3.85;1.83;;;26.70;99.90;;;;;;5035969;28;20025;-67
2022/06/25 09:00:35;;;;;;;5.50;2.50;;;26.90;99.90;;;;;;5036609;28;20071;-66
2022/06/25 09:03:01;;;;;;;4.70;2.47;;;26.90;99.90;;;;;;5036362;28;20107;-68
2022/06/25 09:05:41;;;;;;;4.68;3.38;;;26.70;99.90;;;;;;5035877;28;20030;-69
2022/06/25 09:08:12;;;;;;;3.22;2.50;;;26.70;99.90;;;;;;5036609;28;20021;-70
2022/06/25 09:10:39;;;;;;;2.78;2.20;;;26.80;99.90;;;;;;5036178;28;20025;-69
2022/06/25 09:13:11;;;;;;;7.53;2.13;;;26.90;99.90;;;;;;5035935;28;20022;-69
2022/06/25 09:15:39;;;;;;;4.78;2.03;;;27.10;99.90;;;;;;5036096;28;20022;-69
2022/06/25 09:18:16;;;;;;;4.03;2.33;;;27.20;99.90;;;;;;5036148;28;20083;-69
2022/06/25 09:21:07;;;;;;;4.75;2.65;;;27.40;99.90;;;;;;5035876;28;20031;-69
2022/06/25 09:23:35;;;;;;;3.70;2.58;;;27.50;99.90;;;;;;5036054;28;20021;-69
2022/06/25 09:26:11;;;;;;;4.85;2.65;;;27.50;99.90;;;;;;5035466;28;20121;-69
2022/06/25 09:28:44;;;;;;;2.88;2.45;;;27.60;99.90;;;;;;5035900;28;20032;-69
2022/06/25 09:31:10;;;;;;;3.63;2.40;;;27.50;99.90;;;;;;5035159;28;20113;-68
2022/06/25 09:33:39;;;;;;;4.35;2.25;;;27.70;99.90;;;;;;5035532;28;20061;-68
2022/06/25 09:36:07;;;;;;;5.07;2.20;;;27.90;99.90;;;;;;5035621;28;20037;-68
2022/06/25 09:38:33;;;;;;;2.33;2.05;;;28.10;99.90;;;;;;5035415;28;20104;-68
2022/06/25 09:41:00;;;;;;;6.93;3.47;;;28.30;99.90;;;;;;5035428;28;20113;-68
2022/06/25 09:43:28;;;;;;;4.75;2.72;;;28.30;99.90;;;;;;5035169;28;20021;-68
2022/06/25 09:45:56;;;;;;;3.92;2.13;;;28.30;99.90;;;;;;5035041;28;20037;-68
2022/06/25 09:48:26;;;;;;;3.17;2.47;;;28.50;99.90;;;;;;5035470;28;20040;-68
2022/06/25 09:51:08;;;;;;;2.72;2.30;;;28.50;99.90;;;;;;5035176;28;20025;-67
2022/06/25 09:53:35;;;;;;;7.68;3.05;;;28.80;99.90;;;;;;5035282;28;20022;-67
2022/06/25 09:56:02;;;;;;;5.82;3.55;;;28.60;99.90;;;;;;5035215;28;20017;-67
2022/06/25 09:58:31;;;;;;;4.63;2.30;;;29.10;99.90;;;;;;5034983;28;20030;-67
2022/06/25 10:00:57;;;;;;;4.80;3.42;;;29.10;99.90;;;;;;5035291;28;20108;-67
2022/06/25 10:03:24;;;;;;;3.38;2.53;;;29.20;99.90;;;;;;5035146;28;20107;-67
2022/06/25 10:05:52;;;;;;;4.35;3.50;;;29.60;99.90;;;;;;5034790;28;20474;-67
2022/06/25 10:08:21;;;;;;;7.78;2.92;;;29.40;99.90;;;;;;5034733;28;20021;-68
2022/06/25 10:10:50;;;;;;;3.25;2.70;;;29.10;99.90;;;;;;5034842;28;20049;-68
2022/06/25 10:13:16;;;;;;;4.18;2.47;;;29.40;99.90;;;;;;5034746;28;20017;-68
2022/06/25 10:15:45;;;;;;;4.22;2.60;;;29.50;99.90;;;;;;5034632;28;20470;-68
2022/06/25 10:18:11;;;;;;;4.30;2.97;;;29.60;99.90;;;;;;5034498;28;20036;-68
2022/06/25 10:20:38;;;;;;;3.55;3.13;;;29.80;99.90;;;;;;5034520;28;20109;-68
2022/06/25 10:23:06;;;;;;;4.70;3.70;;;29.50;99.90;;;;;;5034268;28;20029;-68
2022/06/25 10:25:32;;;;;;;4.45;3.63;;;29.40;99.90;;;;;;5034365;28;20025;-68
2022/06/25 10:28:13;;;;;;;4.18;2.67;;;29.40;99.90;;;;;;5034767;28;20072;-68
2022/06/25 10:30:48;;;;;;;4.57;2.70;;;28.90;99.90;;;;;;5034467;28;20018;-68
2022/06/25 10:33:23;;;;;;;4.50;2.53;;;28.60;99.90;;;;;;5034708;28;20125;-68
2022/06/25 10:35:51;;;;;;;3.33;2.90;;;28.60;99.90;;;;;;5034354;28;20040;-68
2022/06/25 10:38:17;;;;;;;3.85;2.40;;;28.60;99.90;;;;;;5035115;28;20030;-68
2022/06/25 10:40:53;;;;;;;5.35;3.33;;;28.80;99.90;;;;;;5034033;28;20036;-68
2022/06/25 10:43:52;;;;;;;4.72;3.78;;;28.10;99.90;;;;;;5033568;28;20033;-68
2022/06/25 10:46:44;;;;;;;4.30;3.40;;;27.80;99.90;;;;;;5033976;28;20029;-68
2022/06/25 10:49:18;;;;;;;6.00;4.00;;;27.40;99.90;;;;;;5031119;28;20400;-68
2022/06/25 10:51:54;;;;;;;8.30;4.95;;;26.90;99.90;;;;;;5034230;28;20025;-68
2022/06/25 10:54:23;;;;;;;3.90;3.25;;;26.50;99.90;;;;;;5033978;28;20025;-68
2022/06/25 10:57:00;;;;;;;5.65;3.67;;;26.40;99.90;;;;;;5034084;28;20057;-68
2022/06/25 10:59:32;;;;;;;5.60;3.30;;;26.70;99.90;;;;;;5033938;28;20021;-67
2022/06/25 11:02:06;;;;;;;9.30;4.40;;;26.80;99.90;;;;;;5033832;28;20445;-67
2022/06/25 11:04:33;;;;;;;4.80;4.28;;;26.80;99.90;;;;;;5033962;28;20029;-67
2022/06/25 11:07:24;;;;;;;8.65;4.38;;;26.70;99.90;;;;;;5033753;28;20025;-67
2022/06/25 11:09:57;;;;;;;5.30;4.80;;;26.70;99.90;;;;;;5033771;28;20095;-67
2022/06/25 11:12:27;;;;;;;7.38;5.53;;;26.80;99.90;;;;;;5033834;28;20116;-67
2022/06/25 11:15:00;;;;;;;7.20;4.20;;;27.10;99.90;;;;;;5034058;28;20051;-66
2022/06/25 11:17:25;;;;;;;8.05;5.35;;;27.10;99.90;;;;;;5033971;28;20021;-67
2022/06/25 11:19:51;;;;;;;16.75;4.60;;;27.10;99.90;;;;;;5033887;28;20033;-67
2022/06/25 11:22:17;;;;;;;6.15;4.70;;;27.00;99.90;;;;;;5033799;28;20108;-66
2022/06/25 11:28:47;;;;;;;8.95;4.60;;;26.80;99.90;;;;;;5033655;28;20394;-67
2022/06/25 11:30:14;;;;;;;6.10;4.60;;;26.80;99.90;;;;;;5033526;28;20432;-67
2022/06/25 11:32:46;;;;;;;5.38;3.50;;;26.60;99.90;;;;;;5033661;28;20025;-67
2022/06/25 11:35:12;;;;;;;5.05;3.88;;;26.40;99.90;;;;;;5033309;28;20500;-67
2022/06/25 11:37:38;;;;;;;4.82;3.38;;;26.20;99.90;;;;;;5033424;28;20036;-67
2022/06/25 11:40:12;;;;;;;4.28;3.88;;;26.10;99.90;;;;;;5033210;28;20104;-68
2022/06/25 11:42:38;;;;;;;4.95;4.30;;;26.00;99.90;;;;;;5033630;28;20037;-67
2022/06/25 11:45:03;;;;;;;5.65;4.65;;;25.80;99.90;;;;;;5033037;28;20095;-67
2022/06/25 11:47:29;;;;;;;5.70;4.00;;;25.50;99.90;;;;;;5033308;28;20239;-67
2022/06/25 11:49:55;;;;;;;13.05;6.68;;;25.30;99.90;;;;;;5033494;28;20532;-68
2022/06/25 11:52:25;;;;;;;18.13;8.45;;;25.10;99.90;;;;;;5033495;28;20029;-67
2022/06/25 11:54:51;;;;;;;15.07;9.18;;;24.90;99.90;;;;;;5037135;28;20021;-68
2022/06/25 11:57:23;;;;;;;16.27;8.82;;;24.50;99.90;;;;;;5037579;28;20026;-68
2022/06/25 11:59:53;;;;;;;19.30;8.50;;;24.20;99.90;;;;;;5037533;28;20033;-68
2022/06/25 12:02:20;;;;;;;13.32;10.75;;;24.20;99.90;;;;;;5019383;28;20036;-68
2022/06/25 12:05:00;;;;;;;12.93;10.90;;;24.40;99.90;;;;;;5036956;28;20157;-68
2022/06/25 12:07:31;;;;;;;12.55;8.55;;;25.00;99.90;;;;;;5037117;28;20472;-68
2022/06/25 12:10:02;;;;;;;9.32;8.27;;;25.60;99.90;;;;;;5037111;28;20128;-68
2022/06/25 12:12:28;;;;;;;8.38;5.90;;;26.10;99.90;;;;;;5037075;28;20018;-68
2022/06/25 12:14:55;;;;;;;8.65;5.93;;;26.40;99.90;;;;;;5037706;28;20021;-69
2022/06/25 12:17:20;;;;;;;6.35;5.38;;;27.00;99.90;;;;;;5036953;28;20037;-71
2022/06/25 12:19:53;;;;;;;8.40;7.55;;;27.70;99.90;;;;;;5037564;28;20030;-71
2022/06/25 12:22:24;;;;;;;6.95;5.57;;;28.10;99.90;;;;;;5019979;28;20022;-71
2022/06/25 12:24:51;;;;;;;8.32;6.90;;;28.80;99.90;;;;;;5036745;28;20036;-71
2022/06/25 12:27:16;;;;;;;9.57;6.70;;;29.00;99.90;;;;;;5037194;28;20381;-71
2022/06/25 12:29:47;;;;;;;12.85;8.05;;;29.50;99.90;;;;;;5037515;28;20018;-71
2022/06/25 12:32:13;;;;;;;7.68;6.82;;;29.80;99.90;;;;;;5020212;28;20024;-71
2022/06/25 12:34:46;;;;;;;10.07;7.38;;;30.00;99.90;;;;;;5036730;28;20104;-70
2022/06/25 12:37:29;;;;;;;6.22;5.50;;;29.90;99.90;;;;;;5037485;28;20029;-70
2022/06/25 12:39:58;;;;;;;6.15;5.55;;;30.50;99.90;;;;;;5037287;28;20401;-70
2022/06/25 12:42:25;;;;;;;6.43;5.45;;;30.60;99.90;;;;;;5036509;28;20017;-71
2022/06/25 12:44:52;;;;;;;8.48;7.57;;;30.00;99.90;;;;;;5052232;23;20091;-72
2022/06/25 12:47:18;;;;;;;8.52;6.63;;;29.00;99.90;;;;;;5056475;28;20035;-72